createdAt,value
2022-08-30T00:01:06.756Z,22.00
2022-08-30T00:03:35.168Z,22.00
2022-08-30T00:06:02.445Z,22.00
2022-08-30T00:08:29.519Z,22.00
2022-08-30T00:10:56.481Z,21.90
2022-08-30T00:13:23.877Z,21.90
2022-08-30T00:15:51.380Z,21.80
2022-08-30T00:18:20.653Z,21.90
2022-08-30T00:20:52.318Z,21.90
2022-08-30T00:23:20.374Z,21.80
2022-08-30T00:25:47.422Z,21.80
2022-08-30T00:28:15.141Z,21.80
2022-08-30T00:30:42.870Z,21.80
2022-08-30T00:33:10.217Z,21.80
2022-08-30T00:35:38.758Z,21.80
2022-08-30T00:38:06.747Z,21.80
2022-08-30T00:40:33.787Z,21.70
2022-08-30T00:43:04.100Z,21.70
2022-08-30T00:45:37.551Z,21.70
2022-08-30T00:48:06.315Z,21.70
2022-08-30T00:50:39.366Z,21.70
2022-08-30T00:53:09.131Z,21.70
2022-08-30T00:55:38.847Z,21.70
2022-08-30T00:58:08.833Z,21.70
2022-08-30T01:00:36.588Z,21.60
2022-08-30T01:03:03.918Z,21.60
2022-08-30T01:05:31.064Z,21.60
2022-08-30T01:07:58.409Z,21.60
2022-08-30T01:10:25.281Z,21.60
2022-08-30T01:12:52.836Z,21.50
2022-08-30T01:15:19.754Z,21.50
2022-08-30T01:17:48.856Z,21.50
2022-08-30T01:20:24.160Z,21.50
2022-08-30T01:22:50.973Z,21.50
2022-08-30T01:25:25.787Z,21.60
2022-08-30T01:27:57.187Z,21.50
2022-08-30T01:30:24.568Z,21.50
2022-08-30T01:32:59.122Z,21.50
2022-08-30T01:35:27.601Z,21.50
2022-08-30T01:37:55.045Z,21.60
2022-08-30T01:40:22.618Z,21.50
2022-08-30T01:42:50.263Z,21.60
2022-08-30T01:45:17.514Z,21.50
2022-08-30T01:47:44.423Z,21.60
2022-08-30T01:50:11.810Z,21.50
2022-08-30T01:52:39.467Z,21.60
2022-08-30T01:55:08.419Z,21.60
2022-08-30T01:57:35.338Z,21.60
2022-08-30T02:00:02.519Z,21.60
2022-08-30T02:02:30.236Z,21.60
2022-08-30T02:04:57.452Z,21.50
2022-08-30T02:07:25.782Z,21.60
2022-08-30T02:09:53.739Z,21.50
2022-08-30T02:12:21.430Z,21.50
2022-08-30T02:14:48.598Z,21.40
2022-08-30T02:17:16.087Z,21.40
2022-08-30T02:19:43.643Z,21.40
2022-08-30T02:22:11.233Z,21.40
2022-08-30T02:24:38.222Z,21.40
2022-08-30T02:27:05.785Z,21.40
2022-08-30T02:29:33.025Z,21.30
2022-08-30T02:32:00.474Z,21.40
2022-08-30T02:34:27.332Z,21.40
2022-08-30T02:36:54.392Z,21.30
2022-08-30T02:39:21.556Z,21.30
2022-08-30T02:41:48.637Z,21.30
2022-08-30T02:44:15.844Z,21.30
2022-08-30T02:46:42.723Z,21.30
2022-08-30T02:49:32.095Z,21.30
2022-08-30T02:51:56.608Z,21.30
2022-08-30T02:54:23.514Z,21.30
2022-08-30T02:56:51.164Z,21.30
2022-08-30T02:59:18.837Z,21.30
2022-08-30T03:01:45.898Z,21.30
2022-08-30T03:04:13.155Z,21.10
2022-08-30T03:06:40.000Z,21.10
2022-08-30T03:09:06.880Z,20.90
2022-08-30T03:11:33.889Z,20.80
2022-08-30T03:14:00.949Z,20.70
2022-08-30T03:16:27.940Z,20.60
2022-08-30T03:18:54.835Z,20.50
2022-08-30T03:21:21.706Z,20.40
2022-08-30T03:23:48.538Z,20.30
2022-08-30T03:26:15.444Z,20.20
2022-08-30T03:28:43.246Z,20.20
2022-08-30T03:31:10.716Z,20.10
2022-08-30T03:33:40.424Z,20.10
2022-08-30T03:36:09.135Z,20.00
2022-08-30T03:38:36.564Z,20.00
2022-08-30T03:41:05.712Z,20.00
2022-08-30T03:43:34.470Z,19.90
2022-08-30T03:46:02.026Z,19.90
2022-08-30T03:48:29.821Z,19.90
2022-08-30T03:50:56.877Z,19.90
2022-08-30T03:53:25.735Z,19.90
2022-08-30T03:55:54.852Z,19.90
2022-08-30T03:58:22.922Z,19.80
2022-08-30T04:00:49.964Z,19.80
2022-08-30T04:03:18.687Z,19.80
2022-08-30T04:05:45.657Z,19.70
2022-08-30T04:08:12.494Z,19.70
2022-08-30T04:10:39.350Z,19.70
2022-08-30T04:13:06.224Z,19.70
2022-08-30T04:15:33.084Z,19.60
2022-08-30T04:18:00.012Z,19.60
2022-08-30T04:20:27.481Z,19.70
2022-08-30T04:22:54.355Z,19.60
2022-08-30T04:25:21.262Z,19.70
2022-08-30T04:27:48.213Z,19.70
2022-08-30T04:30:19.631Z,19.70
2022-08-30T04:32:46.529Z,19.70
2022-08-30T04:35:13.774Z,19.70
2022-08-30T04:37:40.738Z,19.70
2022-08-30T04:40:08.810Z,19.70
2022-08-30T04:42:36.376Z,19.60
2022-08-30T04:45:08.097Z,19.60
2022-08-30T04:47:36.029Z,19.60
2022-08-30T04:50:04.909Z,19.60
2022-08-30T04:52:32.171Z,19.60
2022-08-30T04:54:59.708Z,19.60
2022-08-30T04:57:27.842Z,19.60
2022-08-30T04:59:55.184Z,19.60
2022-08-30T05:02:22.407Z,19.60
2022-08-30T05:05:08.132Z,19.60
2022-08-30T05:07:35.514Z,19.50
2022-08-30T05:10:02.427Z,19.50
2022-08-30T05:12:29.610Z,19.60
2022-08-30T05:14:58.449Z,19.60
2022-08-30T05:17:25.662Z,19.60
2022-08-30T05:19:52.501Z,19.50
2022-08-30T05:22:19.434Z,19.50
2022-08-30T05:24:46.283Z,19.50
2022-08-30T05:27:13.196Z,19.50
2022-08-30T05:29:40.045Z,19.50
2022-08-30T05:32:08.605Z,19.50
2022-08-30T05:34:35.456Z,19.50
2022-08-30T05:37:02.916Z,19.50
2022-08-30T05:39:50.789Z,19.50
2022-08-30T05:42:17.072Z,19.50
2022-08-30T05:44:44.450Z,19.50
2022-08-30T05:47:11.395Z,19.50
2022-08-30T05:49:38.276Z,19.60
2022-08-30T05:52:05.534Z,19.60
2022-08-30T05:54:32.405Z,19.60
2022-08-30T05:56:59.898Z,19.60
2022-08-30T05:59:26.785Z,19.60
2022-08-30T06:01:57.538Z,19.60
2022-08-30T06:04:24.937Z,19.60
2022-08-30T06:06:52.402Z,19.60
2022-08-30T06:09:19.379Z,19.70
2022-08-30T06:11:47.415Z,19.60
2022-08-30T06:14:14.699Z,19.60
2022-08-30T06:16:45.875Z,19.70
2022-08-30T06:19:14.988Z,19.70
2022-08-30T06:21:42.579Z,19.70
2022-08-30T06:24:11.393Z,19.70
2022-08-30T06:26:46.345Z,19.70
2022-08-30T06:29:16.925Z,19.70
2022-08-30T06:31:43.978Z,19.70
2022-08-30T06:34:11.356Z,19.70
2022-08-30T06:36:39.091Z,19.80
2022-08-30T06:39:06.311Z,19.80
2022-08-30T06:41:35.526Z,19.80
2022-08-30T06:44:04.081Z,19.80
2022-08-30T06:46:34.074Z,19.90
2022-08-30T06:49:01.451Z,19.90
2022-08-30T06:51:33.066Z,20.00
2022-08-30T06:54:02.263Z,20.00
2022-08-30T06:56:31.138Z,20.00
2022-08-30T06:58:58.758Z,20.00
2022-08-30T07:01:28.575Z,20.10
2022-08-30T07:03:55.983Z,20.10
2022-08-30T07:06:23.811Z,20.10
2022-08-30T07:08:55.933Z,20.20
2022-08-30T07:11:38.987Z,20.20
2022-08-30T07:14:06.760Z,20.20
2022-08-30T07:16:34.848Z,20.20
2022-08-30T07:19:03.149Z,20.30
2022-08-30T07:21:34.822Z,20.30
2022-08-30T07:24:02.714Z,20.30
2022-08-30T07:26:36.549Z,20.40
2022-08-30T07:29:04.283Z,20.40
2022-08-30T07:31:31.594Z,20.40
2022-08-30T07:33:58.520Z,20.40
2022-08-30T07:36:25.619Z,20.50
2022-08-30T07:38:54.615Z,20.50
2022-08-30T07:41:28.149Z,20.50
2022-08-30T07:43:55.365Z,20.50
2022-08-30T07:46:23.431Z,20.50
2022-08-30T07:48:51.294Z,20.50
2022-08-30T07:51:21.036Z,20.50
2022-08-30T07:53:48.039Z,20.50
2022-08-30T07:56:15.937Z,20.60
2022-08-30T07:58:43.136Z,20.70
2022-08-30T08:01:12.236Z,20.80
2022-08-30T08:03:42.519Z,20.80
2022-08-30T08:06:11.944Z,20.80
2022-08-30T08:08:40.207Z,21.00
2022-08-30T08:11:16.631Z,21.10
2022-08-30T08:13:53.041Z,21.20
2022-08-30T08:16:27.357Z,21.20
2022-08-30T08:18:55.225Z,21.20
2022-08-30T08:21:23.794Z,21.20
2022-08-30T08:23:51.477Z,21.20
2022-08-30T08:26:18.997Z,21.20
2022-08-30T08:28:47.212Z,21.20
2022-08-30T08:31:27.149Z,21.20
2022-08-30T08:36:30.360Z,21.30
2022-08-30T08:38:57.208Z,21.30
2022-08-30T08:42:08.534Z,21.30
2022-08-30T08:47:53.091Z,21.40
2022-08-30T08:50:22.253Z,21.50
2022-08-30T08:53:20.477Z,21.60
2022-08-30T08:55:58.334Z,21.60
2022-08-30T08:58:49.638Z,21.70
2022-08-30T09:01:20.431Z,21.80
2022-08-30T09:03:48.114Z,21.90
2022-08-30T09:06:39.613Z,22.00
2022-08-30T09:09:12.918Z,22.00
2022-08-30T09:11:42.196Z,22.10
2022-08-30T09:14:17.014Z,22.10
2022-08-30T09:17:05.546Z,22.20
2022-08-30T09:19:40.366Z,22.20
2022-08-30T09:22:22.760Z,22.30
2022-08-30T09:25:04.834Z,22.30
2022-08-30T09:27:37.326Z,22.30
2022-08-30T09:30:23.995Z,22.30
2022-08-30T09:33:06.249Z,22.40
2022-08-30T09:35:44.287Z,22.30
2022-08-30T09:38:13.111Z,22.40
2022-08-30T09:40:45.561Z,22.40
2022-08-30T09:43:18.256Z,22.40
2022-08-30T09:45:49.025Z,22.40
2022-08-30T09:48:37.788Z,22.40
2022-08-30T09:51:11.021Z,22.40
2022-08-30T09:53:55.710Z,22.50
2022-08-30T09:56:49.594Z,22.50
2022-08-30T09:59:25.898Z,22.50
2022-08-30T10:02:04.923Z,22.50
2022-08-30T10:04:34.508Z,22.60
2022-08-30T10:07:09.991Z,22.50
2022-08-30T10:09:51.100Z,22.50
2022-08-30T10:12:46.469Z,22.60
2022-08-30T10:15:31.204Z,22.60
2022-08-30T10:18:08.439Z,22.60
2022-08-30T10:20:41.869Z,22.70
2022-08-30T10:23:36.202Z,22.70
2022-08-30T10:26:19.323Z,22.80
2022-08-30T10:28:51.163Z,22.80
2022-08-30T10:31:33.242Z,22.90
2022-08-30T10:34:05.466Z,22.80
2022-08-30T10:36:40.207Z,22.80
2022-08-30T10:39:10.573Z,22.80
2022-08-30T10:41:48.830Z,22.80
2022-08-30T10:44:26.303Z,22.90
2022-08-30T10:47:22.961Z,22.90
2022-08-30T10:49:57.524Z,22.90
2022-08-30T10:52:41.453Z,22.90
2022-08-30T10:55:15.166Z,22.90
2022-08-30T10:57:43.009Z,22.90
2022-08-30T11:00:14.787Z,23.00
2022-08-30T11:03:19.882Z,22.90
2022-08-30T11:06:01.336Z,23.00
2022-08-30T11:08:37.536Z,23.00
2022-08-30T11:11:19.190Z,23.00
2022-08-30T11:13:46.652Z,23.00
2022-08-30T11:16:19.237Z,23.00
2022-08-30T11:18:59.081Z,23.10
2022-08-30T11:21:31.690Z,23.10
2022-08-30T11:24:06.589Z,23.20
2022-08-30T11:26:50.923Z,23.20
2022-08-30T11:29:35.823Z,23.20
2022-08-30T11:32:15.916Z,23.20
2022-08-30T11:34:45.728Z,23.20
2022-08-30T11:37:33.808Z,23.30
2022-08-30T11:40:03.948Z,23.30
2022-08-30T11:42:52.031Z,23.30
2022-08-30T11:45:24.840Z,23.30
2022-08-30T11:48:34.079Z,23.30
2022-08-30T11:51:23.527Z,23.40
2022-08-30T11:54:03.955Z,23.40
2022-08-30T11:57:12.005Z,23.40
2022-08-30T11:59:47.586Z,23.40
2022-08-30T12:02:45.525Z,23.40
2022-08-30T12:05:38.630Z,23.50
2022-08-30T12:08:09.496Z,23.50
2022-08-30T12:10:41.414Z,23.50
2022-08-30T12:13:09.176Z,23.50
2022-08-30T12:15:58.642Z,23.50
2022-08-30T12:18:37.207Z,23.60
2022-08-30T12:21:19.942Z,23.60
2022-08-30T12:24:03.963Z,23.60
2022-08-30T12:26:41.269Z,23.60
2022-08-30T12:29:28.441Z,23.70
2022-08-30T12:32:28.975Z,23.60
2022-08-30T12:35:03.199Z,23.60
2022-08-30T12:37:36.631Z,23.60
2022-08-30T12:40:35.131Z,23.70
2022-08-30T12:43:05.476Z,23.70
2022-08-30T12:45:43.000Z,23.70
2022-08-30T12:48:13.302Z,23.70
2022-08-30T12:50:52.056Z,23.70
2022-08-30T12:53:37.358Z,23.70
2022-08-30T12:56:08.447Z,23.70
2022-08-30T12:58:47.561Z,23.70
2022-08-30T13:01:27.579Z,23.70
2022-08-30T13:04:18.443Z,23.80
2022-08-30T13:06:58.685Z,23.80
2022-08-30T13:09:40.061Z,23.80
2022-08-30T13:12:26.285Z,23.80
2022-08-30T13:14:55.927Z,23.80
2022-08-30T13:17:27.169Z,23.80
2022-08-30T13:19:56.959Z,23.80
2022-08-30T13:22:33.816Z,23.80
2022-08-30T13:25:01.511Z,23.80
2022-08-30T13:27:29.825Z,23.90
2022-08-30T13:29:58.169Z,23.90
2022-08-30T13:32:25.404Z,23.90
2022-08-30T13:34:52.288Z,23.90
2022-08-30T13:40:12.639Z,23.90
2022-08-30T13:42:42.907Z,23.90
2022-08-30T13:48:00.420Z,23.90
2022-08-30T13:50:28.172Z,24.00
2022-08-30T13:52:57.872Z,24.00
2022-08-30T13:55:25.145Z,24.00
2022-08-30T13:57:54.435Z,24.10
2022-08-30T14:00:25.009Z,24.10
2022-08-30T14:02:57.430Z,24.10
2022-08-30T14:11:11.405Z,24.20
2022-08-30T14:13:39.299Z,24.20
2022-08-30T14:16:27.506Z,24.20
2022-08-30T14:18:55.619Z,24.20
2022-08-30T14:21:24.707Z,24.20
2022-08-30T14:23:56.635Z,24.20
2022-08-30T14:26:32.781Z,24.20
2022-08-30T14:29:05.448Z,24.30
2022-08-30T14:31:37.032Z,24.30
2022-08-30T14:34:05.288Z,24.30
2022-08-30T14:36:34.017Z,24.30
2022-08-30T14:39:01.352Z,24.20
2022-08-30T14:41:28.306Z,24.20
2022-08-30T14:43:55.189Z,24.20
2022-08-30T14:46:24.752Z,24.30
2022-08-30T14:48:55.876Z,24.30
2022-08-30T14:51:23.815Z,24.30
2022-08-30T14:53:54.670Z,24.30
2022-08-30T14:56:23.938Z,24.20
2022-08-30T14:59:00.271Z,24.20
2022-08-30T15:01:28.677Z,24.20
2022-08-30T15:03:56.892Z,24.20
2022-08-30T15:06:24.125Z,24.30
2022-08-30T15:08:54.359Z,24.20
2022-08-30T15:11:22.803Z,24.20
2022-08-30T15:13:49.787Z,24.20
2022-08-30T15:16:28.367Z,24.20
2022-08-30T15:18:57.072Z,24.10
2022-08-30T15:21:26.800Z,24.00
2022-08-30T15:23:53.887Z,24.10
2022-08-30T15:26:21.835Z,24.00
2022-08-30T15:28:49.010Z,24.00
2022-08-30T15:31:18.641Z,24.00
2022-08-30T15:33:45.617Z,24.10
2022-08-30T15:36:13.091Z,24.10
2022-08-30T15:38:42.439Z,24.10
2022-08-30T15:41:12.573Z,24.20
2022-08-30T15:43:43.521Z,24.20
2022-08-30T15:46:23.553Z,24.30
2022-08-30T15:49:01.095Z,24.30
2022-08-30T15:51:28.809Z,24.30
2022-08-30T15:53:58.371Z,24.30
2022-08-30T15:56:25.875Z,24.30
2022-08-30T15:58:52.913Z,24.30
2022-08-30T16:01:30.246Z,24.30
2022-08-30T16:03:58.583Z,24.40
2022-08-30T16:06:29.663Z,24.40
2022-08-30T16:08:57.105Z,24.40
2022-08-30T16:11:25.330Z,24.40
2022-08-30T16:13:56.935Z,24.40
2022-08-30T16:16:24.696Z,24.40
2022-08-30T16:18:53.935Z,24.40
2022-08-30T16:21:30.211Z,24.40
2022-08-30T16:24:00.363Z,24.30
2022-08-30T16:26:28.761Z,24.30
2022-08-30T16:28:56.482Z,24.30
2022-08-30T16:31:26.155Z,24.30
2022-08-30T16:33:54.470Z,24.40
2022-08-30T16:36:22.958Z,24.40
2022-08-30T16:38:53.473Z,24.40
2022-08-30T16:41:23.474Z,24.50
2022-08-30T16:43:53.220Z,24.50
2022-08-30T16:46:23.456Z,24.40
2022-08-30T16:48:56.725Z,24.50
2022-08-30T16:51:25.999Z,24.50
2022-08-30T16:53:59.128Z,24.50
2022-08-30T16:56:29.531Z,24.50
2022-08-30T16:59:01.959Z,24.50
2022-08-30T17:01:32.342Z,24.50
2022-08-30T17:04:01.712Z,24.50
2022-08-30T17:06:28.779Z,24.50
2022-08-30T17:08:56.906Z,24.40
2022-08-30T17:11:24.633Z,24.40
2022-08-30T17:13:52.514Z,24.30
2022-08-30T17:16:22.556Z,24.30
2022-08-30T17:18:55.123Z,24.30
2022-08-30T17:21:21.998Z,24.20
2022-08-30T17:23:50.460Z,24.20
2022-08-30T17:26:18.715Z,24.30
2022-08-30T17:28:45.892Z,24.30
2022-08-30T17:31:14.933Z,24.20
2022-08-30T17:33:45.430Z,24.30
2022-08-30T17:36:13.195Z,24.30
2022-08-30T17:41:27.123Z,24.30
2022-08-30T17:43:54.137Z,24.30
2022-08-30T17:46:21.461Z,24.40
2022-08-30T17:48:57.817Z,24.30
2022-08-30T17:51:29.400Z,24.30
2022-08-30T17:53:57.680Z,24.40
2022-08-30T17:56:24.757Z,24.40
2022-08-30T17:59:04.989Z,24.40
2022-08-30T18:01:31.887Z,24.40
2022-08-30T18:06:46.183Z,24.40
2022-08-30T18:09:13.437Z,24.40
2022-08-30T18:11:41.209Z,24.30
2022-08-30T18:14:10.876Z,24.30
2022-08-30T18:16:39.383Z,24.30
2022-08-30T18:19:20.050Z,24.30
2022-08-30T18:21:46.948Z,24.40
2022-08-30T18:24:13.842Z,24.40
2022-08-30T18:26:43.023Z,24.40
2022-08-30T18:29:11.174Z,24.30
2022-08-30T18:31:38.566Z,24.40
2022-08-30T18:34:07.086Z,24.30
2022-08-30T18:36:39.625Z,24.30
2022-08-30T18:39:06.949Z,24.30
2022-08-30T18:41:34.428Z,24.30
2022-08-30T18:44:23.865Z,24.30
2022-08-30T18:46:56.080Z,24.30
2022-08-30T18:49:25.070Z,24.30
2022-08-30T18:51:52.144Z,24.30
2022-08-30T18:54:19.162Z,24.30
2022-08-30T18:56:46.515Z,24.30
2022-08-30T18:59:13.466Z,24.30
2022-08-30T19:01:41.190Z,24.30
2022-08-30T19:04:08.292Z,24.30
2022-08-30T19:06:37.702Z,24.30
2022-08-30T19:09:09.114Z,24.20
2022-08-30T19:11:38.306Z,24.20
2022-08-30T19:14:06.988Z,24.20
2022-08-30T19:16:34.759Z,24.20
2022-08-30T19:19:03.084Z,24.20
2022-08-30T19:21:30.006Z,24.20
2022-08-30T19:23:56.923Z,24.20
2022-08-30T19:26:24.803Z,24.20
2022-08-30T19:28:54.975Z,24.20
2022-08-30T19:31:21.876Z,24.20
2022-08-30T19:33:48.810Z,24.10
2022-08-30T19:36:15.825Z,24.10
2022-08-30T19:38:44.524Z,24.10
2022-08-30T19:41:12.891Z,24.00
2022-08-30T19:43:41.014Z,24.00
2022-08-30T19:46:08.388Z,24.00
2022-08-30T19:48:42.281Z,24.10
2022-08-30T19:51:11.464Z,24.00
2022-08-30T19:53:40.995Z,24.00
2022-08-30T19:56:08.313Z,24.00
2022-08-30T19:58:35.217Z,24.00
2022-08-30T20:01:10.893Z,24.00
2022-08-30T20:03:47.544Z,24.00
2022-08-30T20:06:19.245Z,23.90
2022-08-30T20:08:47.422Z,23.90
2022-08-30T20:11:20.031Z,23.80
2022-08-30T20:13:47.733Z,23.80
2022-08-30T20:16:15.307Z,23.70
2022-08-30T20:18:43.576Z,23.70
2022-08-30T20:21:13.928Z,23.70
2022-08-30T20:23:42.388Z,23.60
2022-08-30T20:24:25.014Z,24.30
2022-08-30T20:24:26.425Z,24.40
2022-08-30T20:26:12.972Z,23.60
2022-08-30T20:28:42.560Z,23.60
2022-08-30T20:31:10.688Z,23.60
2022-08-30T20:33:38.306Z,23.60
2022-08-30T20:36:07.351Z,23.50
2022-08-30T20:38:34.363Z,23.50
2022-08-30T20:41:02.796Z,23.50
2022-08-30T20:43:30.617Z,23.50
2022-08-30T20:45:57.799Z,23.50
2022-08-30T20:48:28.679Z,23.40
2022-08-30T20:50:55.571Z,23.40
2022-08-30T20:53:22.577Z,23.40
2022-08-30T20:55:49.605Z,23.40
2022-08-30T20:58:16.605Z,23.40
2022-08-30T21:00:45.899Z,23.40
2022-08-30T21:03:26.037Z,23.40
2022-08-30T21:05:54.248Z,23.40
2022-08-30T21:08:21.151Z,23.30
2022-08-30T21:10:48.030Z,23.30
2022-08-30T21:13:15.021Z,23.30
2022-08-30T21:15:45.995Z,23.40
2022-08-30T21:18:14.174Z,23.30
2022-08-30T21:20:41.482Z,23.40
2022-08-30T21:23:08.347Z,23.40
2022-08-30T21:25:38.897Z,23.40
2022-08-30T21:28:07.034Z,23.40
2022-08-30T21:30:35.030Z,23.40
2022-08-30T21:33:04.053Z,23.30
2022-08-30T21:35:49.597Z,23.40
2022-08-30T21:38:17.040Z,23.30
2022-08-30T21:40:44.269Z,23.30
2022-08-30T21:43:11.352Z,23.30
2022-08-30T21:45:39.546Z,23.30
2022-08-30T21:48:06.805Z,23.30
2022-08-30T21:50:34.280Z,23.40
2022-08-30T21:53:01.237Z,23.30
2022-08-30T21:55:28.160Z,23.30
2022-08-30T21:57:55.359Z,23.30
2022-08-30T22:00:22.357Z,23.30
2022-08-30T22:02:52.992Z,23.30
2022-08-30T22:05:20.659Z,23.30
2022-08-30T22:07:47.554Z,23.20
2022-08-30T22:10:14.464Z,23.20
2022-08-30T22:12:41.486Z,23.20
2022-08-30T22:15:09.560Z,23.20
2022-08-30T22:17:36.430Z,23.10
2022-08-30T22:20:06.515Z,23.10
2022-08-30T22:22:33.530Z,23.10
2022-08-30T22:25:00.399Z,23.10
2022-08-30T22:27:27.232Z,23.10
2022-08-30T22:29:54.171Z,23.10
2022-08-30T22:32:21.591Z,23.10
2022-08-30T22:34:49.799Z,23.00
2022-08-30T22:37:16.992Z,23.00
2022-08-30T22:39:43.889Z,23.00
2022-08-30T22:42:10.745Z,23.00
2022-08-30T22:44:37.628Z,22.90
2022-08-30T22:47:04.698Z,22.90
2022-08-30T22:49:31.564Z,22.90
2022-08-30T22:51:58.402Z,22.90
2022-08-30T22:54:25.327Z,22.90
2022-08-30T22:56:52.196Z,22.90
2022-08-30T22:59:19.135Z,23.00
2022-08-30T23:01:47.202Z,22.90
2022-08-30T23:04:14.174Z,22.90
2022-08-30T23:06:41.473Z,22.90
2022-08-30T23:09:16.583Z,22.90
2022-08-30T23:11:43.422Z,22.80
2022-08-30T23:14:10.387Z,22.80
2022-08-30T23:16:37.540Z,22.80
2022-08-30T23:19:04.981Z,22.80
2022-08-30T23:21:32.342Z,22.80
2022-08-30T23:24:17.696Z,22.80
2022-08-30T23:27:05.355Z,22.70
2022-08-30T23:29:51.558Z,22.70
2022-08-30T23:32:37.399Z,22.70
2022-08-30T23:35:29.470Z,22.70
2022-08-30T23:38:16.555Z,22.60
2022-08-30T23:41:01.917Z,22.60
2022-08-30T23:43:47.334Z,22.60
2022-08-30T23:46:32.999Z,22.60
2022-08-30T23:49:18.277Z,22.60
2022-08-30T23:52:03.679Z,22.60
2022-08-30T23:54:49.272Z,22.50
2022-08-30T23:57:34.509Z,22.50
